sensor_id;sensor_type;location;lat;lon;timestamp;pressure;altitude;pressure_sealevel;temperature;humidity
64614;BME280;51025;37.772;-122.432;2023-07-16T00:01:08;100513.33;;;24.18;26.78
64614;BME280;51025;37.772;-122.432;2023-07-16T00:03:36;100515.81;;;22.96;27.16
64614;BME280;51025;37.772;-122.432;2023-07-16T00:06:05;100515.65;;;23.44;26.76
64614;BME280;51025;37.772;-122.432;2023-07-16T00:08:33;100517.31;;;22.83;26.62
64614;BME280;51025;37.772;-122.432;2023-07-16T00:11:04;100518.67;;;23.04;27.06
64614;BME280;51025;37.772;-122.432;2023-07-16T00:13:32;100511.38;;;24.72;26.29
64614;BME280;51025;37.772;-122.432;2023-07-16T00:16:00;100509.52;;;23.92;26.93
64614;BME280;51025;37.772;-122.432;2023-07-16T00:18:28;100510.71;;;23.34;27.46
64614;BME280;51025;37.772;-122.432;2023-07-16T00:20:56;100508.66;;;23.24;27.52
64614;BME280;51025;37.772;-122.432;2023-07-16T00:23:25;100508.63;;;22.16;27.54
64614;BME280;51025;37.772;-122.432;2023-07-16T00:25:53;100503.06;;;23.96;26.89
64614;BME280;51025;37.772;-122.432;2023-07-16T00:28:21;100507.20;;;22.54;27.43
64614;BME280;51025;37.772;-122.432;2023-07-16T00:30:49;100505.93;;;23.87;26.99
64614;BME280;51025;37.772;-122.432;2023-07-16T00:33:17;100504.04;;;24.04;26.82
64614;BME280;51025;37.772;-122.432;2023-07-16T00:35:48;100501.92;;;23.01;27.29
64614;BME280;51025;37.772;-122.432;2023-07-16T00:38:17;100500.96;;;23.01;27.30
64614;BME280;51025;37.772;-122.432;2023-07-16T00:40:46;100500.44;;;22.68;27.28
64614;BME280;51025;37.772;-122.432;2023-07-16T00:43:15;100503.08;;;23.77;27.02
64614;BME280;51025;37.772;-122.432;2023-07-16T00:45:46;100503.65;;;23.11;27.18
64614;BME280;51025;37.772;-122.432;2023-07-16T00:48:15;100495.98;;;24.05;26.83
64614;BME280;51025;37.772;-122.432;2023-07-16T00:50:43;100499.54;;;22.72;27.24
64614;BME280;51025;37.772;-122.432;2023-07-16T00:53:13;100495.89;;;23.93;26.84
64614;BME280;51025;37.772;-122.432;2023-07-16T00:55:41;100495.33;;;22.28;27.30
64614;BME280;51025;37.772;-122.432;2023-07-16T00:58:09;100495.39;;;23.58;26.58
64614;BME280;51025;37.772;-122.432;2023-07-16T01:00:39;100485.10;;;23.07;26.97
64614;BME280;51025;37.772;-122.432;2023-07-16T01:03:08;100484.32;;;24.17;26.67
64614;BME280;51025;37.772;-122.432;2023-07-16T01:05:42;100485.52;;;23.14;26.92
64614;BME280;51025;37.772;-122.432;2023-07-16T01:08:16;100483.21;;;23.05;26.98
64614;BME280;51025;37.772;-122.432;2023-07-16T01:10:47;100483.28;;;22.86;27.19
64614;BME280;51025;37.772;-122.432;2023-07-16T01:13:16;100484.31;;;23.86;26.98
64614;BME280;51025;37.772;-122.432;2023-07-16T01:15:44;100487.89;;;23.60;26.56
64614;BME280;51025;37.772;-122.432;2023-07-16T01:18:13;100484.02;;;23.78;26.41
64614;BME280;51025;37.772;-122.432;2023-07-16T01:20:41;100484.29;;;23.39;26.73
64614;BME280;51025;37.772;-122.432;2023-07-16T01:24:00;100481.30;;;24.37;26.56
64614;BME280;51025;37.772;-122.432;2023-07-16T01:26:47;100484.11;;;23.19;26.84
64614;BME280;51025;37.772;-122.432;2023-07-16T01:29:28;100481.54;;;24.41;26.49
64614;BME280;51025;37.772;-122.432;2023-07-16T01:31:58;100483.78;;;23.43;26.90
64614;BME280;51025;37.772;-122.432;2023-07-16T01:34:29;100479.04;;;23.29;26.80
64614;BME280;51025;37.772;-122.432;2023-07-16T01:36:59;100480.10;;;23.06;26.94
64614;BME280;51025;37.772;-122.432;2023-07-16T01:39:28;100476.51;;;22.53;26.71
64614;BME280;51025;37.772;-122.432;2023-07-16T01:41:57;100470.05;;;24.43;26.43
64614;BME280;51025;37.772;-122.432;2023-07-16T01:44:26;100469.10;;;23.24;26.45
64614;BME280;51025;37.772;-122.432;2023-07-16T01:47:07;100470.92;;;23.45;26.54
64614;BME280;51025;37.772;-122.432;2023-07-16T01:49:35;100469.90;;;23.60;26.42
64614;BME280;51025;37.772;-122.432;2023-07-16T01:52:05;100463.10;;;23.41;26.85
64614;BME280;51025;37.772;-122.432;2023-07-16T01:54:34;100459.06;;;23.29;26.69
64614;BME280;51025;37.772;-122.432;2023-07-16T01:57:02;100462.01;;;23.92;26.11
64614;BME280;51025;37.772;-122.432;2023-07-16T01:59:31;100456.18;;;23.99;26.08
64614;BME280;51025;37.772;-122.432;2023-07-16T02:01:59;100464.88;;;23.48;26.57
64614;BME280;51025;37.772;-122.432;2023-07-16T02:04:28;100464.69;;;23.46;26.30
64614;BME280;51025;37.772;-122.432;2023-07-16T02:06:56;100465.84;;;24.21;26.23
64614;BME280;51025;37.772;-122.432;2023-07-16T02:09:25;100467.91;;;23.73;26.63
64614;BME280;51025;37.772;-122.432;2023-07-16T02:11:53;100464.95;;;24.10;26.72
64614;BME280;51025;37.772;-122.432;2023-07-16T02:14:21;100464.40;;;24.60;26.66
64614;BME280;51025;37.772;-122.432;2023-07-16T02:16:49;100468.08;;;23.49;27.31
64614;BME280;51025;37.772;-122.432;2023-07-16T02:19:18;100465.83;;;24.14;26.71
64614;BME280;51025;37.772;-122.432;2023-07-16T02:21:46;100467.59;;;23.68;27.11
64614;BME280;51025;37.772;-122.432;2023-07-16T02:24:15;100471.47;;;22.86;27.45
64614;BME280;51025;37.772;-122.432;2023-07-16T02:26:43;100477.01;;;23.36;27.01
64614;BME280;51025;37.772;-122.432;2023-07-16T02:29:11;100479.90;;;22.93;27.38
64614;BME280;51025;37.772;-122.432;2023-07-16T02:31:40;100483.84;;;23.23;27.19
64614;BME280;51025;37.772;-122.432;2023-07-16T02:34:08;100480.67;;;24.00;27.13
64614;BME280;51025;37.772;-122.432;2023-07-16T02:36:36;100483.73;;;23.60;27.23
64614;BME280;51025;37.772;-122.432;2023-07-16T02:39:04;100481.46;;;23.87;27.42
64614;BME280;51025;37.772;-122.432;2023-07-16T02:41:32;100485.76;;;22.35;28.17
64614;BME280;51025;37.772;-122.432;2023-07-16T02:44:01;100491.17;;;24.11;27.71
64614;BME280;51025;37.772;-122.432;2023-07-16T02:46:29;100491.71;;;22.15;28.31
64614;BME280;51025;37.772;-122.432;2023-07-16T02:48:58;100490.38;;;23.55;27.77
64614;BME280;51025;37.772;-122.432;2023-07-16T02:51:26;100494.24;;;22.50;27.95
64614;BME280;51025;37.772;-122.432;2023-07-16T02:53:55;100496.02;;;23.14;27.99
64614;BME280;51025;37.772;-122.432;2023-07-16T02:56:23;100501.47;;;23.44;27.71
64614;BME280;51025;37.772;-122.432;2023-07-16T02:58:51;100491.83;;;23.37;27.97
64614;BME280;51025;37.772;-122.432;2023-07-16T03:01:20;100494.08;;;23.75;28.19
64614;BME280;51025;37.772;-122.432;2023-07-16T03:03:48;100497.28;;;23.42;27.90
64614;BME280;51025;37.772;-122.432;2023-07-16T03:06:16;100496.63;;;23.87;28.15
64614;BME280;51025;37.772;-122.432;2023-07-16T03:08:44;100496.30;;;24.07;27.98
64614;BME280;51025;37.772;-122.432;2023-07-16T03:11:13;100497.83;;;23.64;28.08
64614;BME280;51025;37.772;-122.432;2023-07-16T03:13:41;100498.39;;;22.86;28.44
64614;BME280;51025;37.772;-122.432;2023-07-16T03:16:10;100498.75;;;23.15;28.32
64614;BME280;51025;37.772;-122.432;2023-07-16T03:18:38;100498.51;;;23.01;28.17
64614;BME280;51025;37.772;-122.432;2023-07-16T03:21:06;100496.25;;;22.94;28.17
64614;BME280;51025;37.772;-122.432;2023-07-16T03:23:35;100496.06;;;22.44;28.25
64614;BME280;51025;37.772;-122.432;2023-07-16T03:26:03;100496.06;;;23.19;28.04
64614;BME280;51025;37.772;-122.432;2023-07-16T03:28:31;100498.97;;;22.32;28.08
64614;BME280;51025;37.772;-122.432;2023-07-16T03:31:00;100499.02;;;24.18;27.79
64614;BME280;51025;37.772;-122.432;2023-07-16T03:33:28;100501.74;;;22.98;27.84
64614;BME280;51025;37.772;-122.432;2023-07-16T03:35:57;100496.55;;;22.91;28.15
64614;BME280;51025;37.772;-122.432;2023-07-16T03:38:25;100501.61;;;23.28;27.90
64614;BME280;51025;37.772;-122.432;2023-07-16T03:40:53;100504.42;;;23.80;27.40
64614;BME280;51025;37.772;-122.432;2023-07-16T03:43:22;100506.43;;;23.89;27.52
64614;BME280;51025;37.772;-122.432;2023-07-16T03:45:50;100510.49;;;22.94;27.98
64614;BME280;51025;37.772;-122.432;2023-07-16T03:48:19;100516.15;;;24.40;27.39
64614;BME280;51025;37.772;-122.432;2023-07-16T03:50:48;100516.50;;;23.12;27.80
64614;BME280;51025;37.772;-122.432;2023-07-16T03:53:16;100517.74;;;24.01;27.34
64614;BME280;51025;37.772;-122.432;2023-07-16T03:55:44;100517.35;;;23.71;27.29
64614;BME280;51025;37.772;-122.432;2023-07-16T03:58:12;100518.34;;;24.53;27.29
64614;BME280;51025;37.772;-122.432;2023-07-16T04:00:41;100521.77;;;23.58;27.41
64614;BME280;51025;37.772;-122.432;2023-07-16T04:03:09;100521.67;;;23.32;27.53
64614;BME280;51025;37.772;-122.432;2023-07-16T04:05:38;100518.88;;;24.16;27.13
64614;BME280;51025;37.772;-122.432;2023-07-16T04:08:07;100517.95;;;24.46;27.30
64614;BME280;51025;37.772;-122.432;2023-07-16T04:10:35;100524.26;;;23.45;27.41
64614;BME280;51025;37.772;-122.432;2023-07-16T04:13:04;100526.22;;;24.07;27.42
64614;BME280;51025;37.772;-122.432;2023-07-16T04:15:32;100529.82;;;23.26;27.24
64614;BME280;51025;37.772;-122.432;2023-07-16T04:18:00;100529.93;;;23.38;27.48
64614;BME280;51025;37.772;-122.432;2023-07-16T04:20:28;100529.92;;;23.26;27.26
64614;BME280;51025;37.772;-122.432;2023-07-16T04:22:57;100529.63;;;23.74;27.34
64614;BME280;51025;37.772;-122.432;2023-07-16T04:25:26;100533.28;;;22.94;27.41
64614;BME280;51025;37.772;-122.432;2023-07-16T04:27:55;100533.26;;;24.21;27.03
64614;BME280;51025;37.772;-122.432;2023-07-16T04:30:24;100535.26;;;23.02;27.56
64614;BME280;51025;37.772;-122.432;2023-07-16T04:32:52;100533.99;;;23.32;27.28
64614;BME280;51025;37.772;-122.432;2023-07-16T04:35:20;100539.10;;;24.52;27.06
64614;BME280;51025;37.772;-122.432;2023-07-16T04:37:49;100533.54;;;24.41;26.72
64614;BME280;51025;37.772;-122.432;2023-07-16T04:40:17;100534.68;;;24.67;26.80
64614;BME280;51025;37.772;-122.432;2023-07-16T04:42:45;100538.89;;;23.59;27.03
64614;BME280;51025;37.772;-122.432;2023-07-16T04:45:14;100540.50;;;23.85;27.06
64614;BME280;51025;37.772;-122.432;2023-07-16T04:47:43;100546.72;;;23.70;26.93
64614;BME280;51025;37.772;-122.432;2023-07-16T04:50:10;100547.11;;;24.51;26.86
64614;BME280;51025;37.772;-122.432;2023-07-16T04:52:38;100546.46;;;23.79;26.74
64614;BME280;51025;37.772;-122.432;2023-07-16T04:55:08;100549.68;;;24.32;26.54
64614;BME280;51025;37.772;-122.432;2023-07-16T04:57:36;100551.16;;;24.06;26.49
64614;BME280;51025;37.772;-122.432;2023-07-16T05:00:06;100548.05;;;23.72;26.81
64614;BME280;51025;37.772;-122.432;2023-07-16T05:02:34;100546.66;;;23.40;26.95
64614;BME280;51025;37.772;-122.432;2023-07-16T05:05:03;100544.66;;;23.96;26.80
64614;BME280;51025;37.772;-122.432;2023-07-16T05:07:31;100545.30;;;23.42;26.67
64614;BME280;51025;37.772;-122.432;2023-07-16T05:09:59;100547.15;;;24.15;26.68
64614;BME280;51025;37.772;-122.432;2023-07-16T05:12:27;100541.76;;;23.45;26.91
64614;BME280;51025;37.772;-122.432;2023-07-16T05:14:56;100542.27;;;23.92;26.78
64614;BME280;51025;37.772;-122.432;2023-07-16T05:17:25;100542.24;;;23.71;26.72
64614;BME280;51025;37.772;-122.432;2023-07-16T05:19:53;100545.26;;;23.67;26.66
64614;BME280;51025;37.772;-122.432;2023-07-16T05:22:22;100548.00;;;23.71;26.57
64614;BME280;51025;37.772;-122.432;2023-07-16T05:24:50;100549.61;;;23.78;26.55
64614;BME280;51025;37.772;-122.432;2023-07-16T05:27:18;100551.41;;;24.34;26.77
64614;BME280;51025;37.772;-122.432;2023-07-16T05:29:47;100553.93;;;23.91;26.37
64614;BME280;51025;37.772;-122.432;2023-07-16T05:32:15;100559.35;;;24.08;26.62
64614;BME280;51025;37.772;-122.432;2023-07-16T05:34:42;100564.09;;;23.71;26.82
64614;BME280;51025;37.772;-122.432;2023-07-16T05:37:10;100571.30;;;24.23;26.90
64614;BME280;51025;37.772;-122.432;2023-07-16T05:39:39;100576.03;;;23.43;27.13
64614;BME280;51025;37.772;-122.432;2023-07-16T05:42:08;100577.58;;;24.13;26.66
64614;BME280;51025;37.772;-122.432;2023-07-16T05:44:36;100584.80;;;23.35;27.14
64614;BME280;51025;37.772;-122.432;2023-07-16T05:47:05;100584.27;;;24.10;27.11
64614;BME280;51025;37.772;-122.432;2023-07-16T05:49:34;100584.38;;;23.42;27.06
64614;BME280;51025;37.772;-122.432;2023-07-16T05:52:02;100590.87;;;23.92;26.99
64614;BME280;51025;37.772;-122.432;2023-07-16T05:54:30;100590.85;;;23.51;27.01
64614;BME280;51025;37.772;-122.432;2023-07-16T05:56:58;100592.41;;;23.23;27.15
64614;BME280;51025;37.772;-122.432;2023-07-16T05:59:26;100594.03;;;23.29;27.13
64614;BME280;51025;37.772;-122.432;2023-07-16T06:01:54;100586.61;;;23.08;27.33
64614;BME280;51025;37.772;-122.432;2023-07-16T06:04:23;100585.53;;;23.12;27.52
64614;BME280;51025;37.772;-122.432;2023-07-16T06:06:51;100583.62;;;22.80;27.52
64614;BME280;51025;37.772;-122.432;2023-07-16T06:09:19;100582.40;;;23.08;27.27
64614;BME280;51025;37.772;-122.432;2023-07-16T06:11:47;100579.79;;;23.69;27.41
64614;BME280;51025;37.772;-122.432;2023-07-16T06:14:16;100578.79;;;23.48;27.14
64614;BME280;51025;37.772;-122.432;2023-07-16T06:16:44;100573.26;;;24.46;26.66
64614;BME280;51025;37.772;-122.432;2023-07-16T06:19:14;100567.90;;;23.19;27.31
64614;BME280;51025;37.772;-122.432;2023-07-16T06:21:43;100565.28;;;24.21;26.89
64614;BME280;51025;37.772;-122.432;2023-07-16T06:24:11;100566.31;;;23.74;26.89
64614;BME280;51025;37.772;-122.432;2023-07-16T06:26:40;100569.74;;;23.37;26.79
64614;BME280;51025;37.772;-122.432;2023-07-16T06:29:08;100568.17;;;24.16;26.83
64614;BME280;51025;37.772;-122.432;2023-07-16T06:31:37;100573.90;;;24.23;26.70
64614;BME280;51025;37.772;-122.432;2023-07-16T06:34:05;100577.98;;;23.72;27.12
64614;BME280;51025;37.772;-122.432;2023-07-16T06:36:33;100586.22;;;23.38;26.77
64614;BME280;51025;37.772;-122.432;2023-07-16T06:39:01;100588.35;;;23.16;26.90
64614;BME280;51025;37.772;-122.432;2023-07-16T06:41:30;100587.29;;;22.98;26.76
64614;BME280;51025;37.772;-122.432;2023-07-16T06:43:58;100586.47;;;23.52;27.22
64614;BME280;51025;37.772;-122.432;2023-07-16T06:46:26;100589.79;;;22.60;27.08
64614;BME280;51025;37.772;-122.432;2023-07-16T06:48:55;100586.96;;;23.71;27.15
64614;BME280;51025;37.772;-122.432;2023-07-16T06:51:24;100580.19;;;23.40;26.66
64614;BME280;51025;37.772;-122.432;2023-07-16T06:53:52;100582.81;;;23.17;27.52
64614;BME280;51025;37.772;-122.432;2023-07-16T06:56:21;100585.94;;;23.78;27.02
64614;BME280;51025;37.772;-122.432;2023-07-16T06:58:48;100586.16;;;23.35;26.73
64614;BME280;51025;37.772;-122.432;2023-07-16T07:01:17;100589.91;;;23.24;26.78
64614;BME280;51025;37.772;-122.432;2023-07-16T07:03:45;100589.43;;;23.27;27.05
64614;BME280;51025;37.772;-122.432;2023-07-16T07:06:14;100594.03;;;22.87;27.36
64614;BME280;51025;37.772;-122.432;2023-07-16T07:08:42;100591.53;;;23.30;27.32
64614;BME280;51025;37.772;-122.432;2023-07-16T07:11:10;100584.73;;;23.52;27.23
64614;BME280;51025;37.772;-122.432;2023-07-16T07:13:38;100580.00;;;23.42;26.80
64614;BME280;51025;37.772;-122.432;2023-07-16T07:16:06;100580.00;;;23.76;26.93
64614;BME280;51025;37.772;-122.432;2023-07-16T07:18:34;100578.24;;;22.83;27.06
64614;BME280;51025;37.772;-122.432;2023-07-16T07:21:02;100581.45;;;22.84;27.40
64614;BME280;51025;37.772;-122.432;2023-07-16T07:23:30;100574.78;;;22.52;27.06
64614;BME280;51025;37.772;-122.432;2023-07-16T07:25:58;100573.14;;;22.35;27.43
64614;BME280;51025;37.772;-122.432;2023-07-16T07:28:26;100572.18;;;22.14;27.66
64614;BME280;51025;37.772;-122.432;2023-07-16T07:30:55;100567.91;;;22.81;27.76
64614;BME280;51025;37.772;-122.432;2023-07-16T07:33:23;100566.14;;;22.06;27.75
64614;BME280;51025;37.772;-122.432;2023-07-16T07:35:54;100563.35;;;23.30;27.50
64614;BME280;51025;37.772;-122.432;2023-07-16T07:38:23;100560.44;;;22.89;27.78
64614;BME280;51025;37.772;-122.432;2023-07-16T07:40:51;100558.75;;;22.89;27.81
64614;BME280;51025;37.772;-122.432;2023-07-16T07:43:20;100560.11;;;22.90;27.77
64614;BME280;51025;37.772;-122.432;2023-07-16T07:45:48;100559.76;;;22.17;27.78
64614;BME280;51025;37.772;-122.432;2023-07-16T07:48:16;100559.36;;;22.87;27.45
64614;BME280;51025;37.772;-122.432;2023-07-16T07:50:46;100560.21;;;22.38;27.79
64614;BME280;51025;37.772;-122.432;2023-07-16T07:53:15;100559.75;;;23.54;27.50
64614;BME280;51025;37.772;-122.432;2023-07-16T07:55:43;100564.85;;;23.07;27.77
64614;BME280;51025;37.772;-122.432;2023-07-16T07:58:13;100567.54;;;22.57;27.91
64614;BME280;51025;37.772;-122.432;2023-07-16T08:00:41;100563.46;;;21.91;27.78
64614;BME280;51025;37.772;-122.432;2023-07-16T08:03:09;100564.12;;;22.68;27.78
64614;BME280;51025;37.772;-122.432;2023-07-16T08:05:37;100561.68;;;21.76;27.84
64614;BME280;51025;37.772;-122.432;2023-07-16T08:08:06;100554.24;;;23.03;27.37
64614;BME280;51025;37.772;-122.432;2023-07-16T08:10:34;100556.72;;;22.46;27.85
64614;BME280;51025;37.772;-122.432;2023-07-16T08:13:02;100558.63;;;22.39;27.95
64614;BME280;51025;37.772;-122.432;2023-07-16T08:15:31;100560.81;;;21.34;27.79
64614;BME280;51025;37.772;-122.432;2023-07-16T08:17:59;100562.48;;;22.36;27.90
64614;BME280;51025;37.772;-122.432;2023-07-16T08:20:28;100560.29;;;21.81;27.70
64614;BME280;51025;37.772;-122.432;2023-07-16T08:22:56;100559.36;;;22.28;27.93
64614;BME280;51025;37.772;-122.432;2023-07-16T08:25:25;100562.55;;;21.42;27.94
64614;BME280;51025;37.772;-122.432;2023-07-16T08:27:53;100558.59;;;22.44;27.73
64614;BME280;51025;37.772;-122.432;2023-07-16T08:30:22;100563.21;;;22.57;27.94
64614;BME280;51025;37.772;-122.432;2023-07-16T08:32:50;100559.57;;;23.09;27.13
64614;BME280;51025;37.772;-122.432;2023-07-16T08:35:20;100559.87;;;22.26;27.76
64614;BME280;51025;37.772;-122.432;2023-07-16T08:37:48;100556.60;;;22.54;27.57
64614;BME280;51025;37.772;-122.432;2023-07-16T08:40:16;100557.28;;;22.69;27.70
64614;BME280;51025;37.772;-122.432;2023-07-16T08:42:45;100559.12;;;22.10;27.89
64614;BME280;51025;37.772;-122.432;2023-07-16T08:45:15;100558.23;;;22.55;27.87
64614;BME280;51025;37.772;-122.432;2023-07-16T08:47:43;100556.72;;;22.27;27.84
64614;BME280;51025;37.772;-122.432;2023-07-16T08:50:12;100552.10;;;22.50;27.54
64614;BME280;51025;37.772;-122.432;2023-07-16T08:52:41;100551.79;;;22.16;27.76
64614;BME280;51025;37.772;-122.432;2023-07-16T08:55:09;100547.53;;;22.15;27.77
64614;BME280;51025;37.772;-122.432;2023-07-16T08:57:39;100551.41;;;22.33;27.87
64614;BME280;51025;37.772;-122.432;2023-07-16T09:00:08;100554.47;;;22.05;27.83
64614;BME280;51025;37.772;-122.432;2023-07-16T09:02:37;100552.45;;;21.91;27.90
64614;BME280;51025;37.772;-122.432;2023-07-16T09:05:05;100547.33;;;22.60;27.64
64614;BME280;51025;37.772;-122.432;2023-07-16T09:07:36;100551.37;;;22.14;27.70
64614;BME280;51025;37.772;-122.432;2023-07-16T09:10:05;100548.26;;;22.21;27.93
64614;BME280;51025;37.772;-122.432;2023-07-16T09:12:34;100541.32;;;22.78;27.53
64614;BME280;51025;37.772;-122.432;2023-07-16T09:15:03;100545.25;;;22.50;27.65
64614;BME280;51025;37.772;-122.432;2023-07-16T09:17:31;100545.25;;;21.92;27.82
64614;BME280;51025;37.772;-122.432;2023-07-16T09:20:03;100543.48;;;21.78;27.92
64614;BME280;51025;37.772;-122.432;2023-07-16T09:22:33;100539.27;;;21.56;27.78
64614;BME280;51025;37.772;-122.432;2023-07-16T09:25:02;100532.61;;;23.10;27.06
64614;BME280;51025;37.772;-122.432;2023-07-16T09:27:31;100534.86;;;21.11;27.79
64614;BME280;51025;37.772;-122.432;2023-07-16T09:29:59;100537.94;;;21.86;27.84
64614;BME280;51025;37.772;-122.432;2023-07-16T09:32:34;100538.15;;;21.07;27.83
64614;BME280;51025;37.772;-122.432;2023-07-16T09:35:09;100537.61;;;22.14;27.84
64614;BME280;51025;37.772;-122.432;2023-07-16T09:37:37;100537.03;;;21.75;27.88
64614;BME280;51025;37.772;-122.432;2023-07-16T09:40:08;100536.48;;;22.07;27.88
64614;BME280;51025;37.772;-122.432;2023-07-16T09:42:39;100533.00;;;20.93;27.89
64614;BME280;51025;37.772;-122.432;2023-07-16T09:45:13;100529.53;;;21.73;27.84
64614;BME280;51025;37.772;-122.432;2023-07-16T09:47:44;100528.73;;;22.03;27.87
64614;BME280;51025;37.772;-122.432;2023-07-16T09:50:13;100527.67;;;21.92;27.98
64614;BME280;51025;37.772;-122.432;2023-07-16T09:52:41;100527.80;;;21.68;27.83
64614;BME280;51025;37.772;-122.432;2023-07-16T09:55:10;100531.43;;;22.04;27.84
64614;BME280;51025;37.772;-122.432;2023-07-16T09:57:41;100525.99;;;21.66;27.83
64614;BME280;51025;37.772;-122.432;2023-07-16T10:00:11;100526.22;;;22.15;27.69
64614;BME280;51025;37.772;-122.432;2023-07-16T10:02:40;100520.33;;;21.90;27.89
64614;BME280;51025;37.772;-122.432;2023-07-16T10:05:13;100515.38;;;21.60;27.85
64614;BME280;51025;37.772;-122.432;2023-07-16T10:07:43;100513.29;;;22.04;27.77
64614;BME280;51025;37.772;-122.432;2023-07-16T10:10:11;100509.35;;;21.56;27.82
64614;BME280;51025;37.772;-122.432;2023-07-16T10:12:42;100509.80;;;21.22;27.75
64614;BME280;51025;37.772;-122.432;2023-07-16T10:15:12;100506.93;;;21.52;27.87
64614;BME280;51025;37.772;-122.432;2023-07-16T10:17:50;100506.04;;;21.49;27.87
64614;BME280;51025;37.772;-122.432;2023-07-16T10:20:29;100500.51;;;22.22;27.92
64614;BME280;51025;37.772;-122.432;2023-07-16T10:22:58;100495.57;;;21.77;27.93
64614;BME280;51025;37.772;-122.432;2023-07-16T10:25:27;100492.70;;;21.44;27.90
64614;BME280;51025;37.772;-122.432;2023-07-16T10:27:55;100492.48;;;21.72;27.94
64614;BME280;51025;37.772;-122.432;2023-07-16T10:30:24;100493.62;;;21.39;27.93
64614;BME280;51025;37.772;-122.432;2023-07-16T10:32:52;100490.58;;;21.57;27.76
64614;BME280;51025;37.772;-122.432;2023-07-16T10:35:22;100491.98;;;21.89;27.72
64614;BME280;51025;37.772;-122.432;2023-07-16T10:37:51;100491.69;;;21.45;27.86
64614;BME280;51025;37.772;-122.432;2023-07-16T10:40:20;100490.40;;;21.80;27.81
64614;BME280;51025;37.772;-122.432;2023-07-16T10:42:48;100487.30;;;21.61;27.96
64614;BME280;51025;37.772;-122.432;2023-07-16T10:45:16;100488.20;;;21.26;27.96
64614;BME280;51025;37.772;-122.432;2023-07-16T10:47:53;100491.15;;;21.20;27.99
64614;BME280;51025;37.772;-122.432;2023-07-16T10:50:22;100489.23;;;21.93;27.77
64614;BME280;51025;37.772;-122.432;2023-07-16T10:52:51;100487.03;;;21.94;27.66
64614;BME280;51025;37.772;-122.432;2023-07-16T10:55:21;100484.13;;;22.35;27.68
64614;BME280;51025;37.772;-122.432;2023-07-16T10:57:50;100480.47;;;21.59;27.64
64614;BME280;51025;37.772;-122.432;2023-07-16T11:00:19;100478.85;;;22.21;27.70
64614;BME280;51025;37.772;-122.432;2023-07-16T11:02:51;100477.37;;;21.87;27.66
64614;BME280;51025;37.772;-122.432;2023-07-16T11:05:19;100479.82;;;22.07;27.83
64614;BME280;51025;37.772;-122.432;2023-07-16T11:07:49;100480.80;;;21.54;27.92
64614;BME280;51025;37.772;-122.432;2023-07-16T11:10:18;100482.42;;;21.63;27.81
64614;BME280;51025;37.772;-122.432;2023-07-16T11:12:51;100484.52;;;21.67;27.81
64614;BME280;51025;37.772;-122.432;2023-07-16T11:15:30;100489.79;;;22.00;27.84
64614;BME280;51025;37.772;-122.432;2023-07-16T11:17:59;100490.05;;;21.42;27.99
64614;BME280;51025;37.772;-122.432;2023-07-16T11:20:28;100487.67;;;21.13;27.92
64614;BME280;51025;37.772;-122.432;2023-07-16T11:22:58;100484.70;;;21.88;27.92
64614;BME280;51025;37.772;-122.432;2023-07-16T11:25:28;100482.55;;;21.05;27.98
64614;BME280;51025;37.772;-122.432;2023-07-16T11:27:57;100484.07;;;21.40;27.97
64614;BME280;51025;37.772;-122.432;2023-07-16T11:30:26;100485.67;;;21.02;27.99
64614;BME280;51025;37.772;-122.432;2023-07-16T11:32:57;100486.41;;;21.39;28.05
64614;BME280;51025;37.772;-122.432;2023-07-16T11:35:26;100488.79;;;20.98;28.03
64614;BME280;51025;37.772;-122.432;2023-07-16T11:37:55;100492.68;;;21.39;27.97
64614;BME280;51025;37.772;-122.432;2023-07-16T11:40:25;100497.84;;;21.10;27.90
64614;BME280;51025;37.772;-122.432;2023-07-16T11:42:53;100498.81;;;21.29;28.02
64614;BME280;51025;37.772;-122.432;2023-07-16T11:45:24;100499.34;;;21.69;28.04
64614;BME280;51025;37.772;-122.432;2023-07-16T11:47:52;100502.17;;;21.52;27.78
64614;BME280;51025;37.772;-122.432;2023-07-16T11:50:21;100499.33;;;21.88;27.78
64614;BME280;51025;37.772;-122.432;2023-07-16T11:52:54;100497.64;;;21.40;27.86
64614;BME280;51025;37.772;-122.432;2023-07-16T11:55:23;100499.86;;;21.29;27.96
64614;BME280;51025;37.772;-122.432;2023-07-16T11:57:51;100500.03;;;21.73;27.93
64614;BME280;51025;37.772;-122.432;2023-07-16T12:00:20;100501.90;;;21.55;28.12
64614;BME280;51025;37.772;-122.432;2023-07-16T12:02:49;100501.30;;;21.79;27.84
64614;BME280;51025;37.772;-122.432;2023-07-16T12:05:17;100499.36;;;21.95;27.73
64614;BME280;51025;37.772;-122.432;2023-07-16T12:07:46;100499.26;;;21.16;28.00
64614;BME280;51025;37.772;-122.432;2023-07-16T12:10:14;100496.27;;;21.08;28.09
64614;BME280;51025;37.772;-122.432;2023-07-16T12:12:42;100487.61;;;21.16;27.99
64614;BME280;51025;37.772;-122.432;2023-07-16T12:15:11;100490.90;;;21.39;28.15
64614;BME280;51025;37.772;-122.432;2023-07-16T12:17:39;100493.82;;;21.61;27.94
64614;BME280;51025;37.772;-122.432;2023-07-16T12:20:08;100492.64;;;20.98;28.13
64614;BME280;51025;37.772;-122.432;2023-07-16T12:22:36;100492.09;;;20.78;27.98
64614;BME280;51025;37.772;-122.432;2023-07-16T12:25:05;100494.87;;;21.37;28.11
64614;BME280;51025;37.772;-122.432;2023-07-16T12:27:33;100491.68;;;20.71;28.00
64614;BME280;51025;37.772;-122.432;2023-07-16T12:30:01;100487.39;;;21.06;27.97